Alpha, California Weather observations

Data are for observation ending at time listed.
 Day   Time    Ave.   Ave.  Ave.  Vector   Max.   Stn.    Total    Solar   Ave.   Snow 
  of    of     Air    Rel.  Wind   Wind    Wind   Baro.  Precip.   Rad.    Soil   Depth
Year   Day     Temp.  Hum.  Speed  Dir.    Gust   Pres.                    Temp.       
2016   (PST)    F      %     mph   deg.    mph     mb.     in.     W/m2     F      in. 
---------------------------------------------------------------------------------------  
 272   20:40   56.2    38    2.4   163      3.7   790.1    0.00       0    -14710.0  162.2
 272   20:50   55.8    39    2.0   137      3.1   790.1    0.00       0    -14710.0  162.2
 272   21:00   55.8    39    3.0   165      4.7   790.2    0.00       0    -14710.0  162.1
 272   21:10   55.4    40    1.6   148      3.6   790.3    0.00       0    -14710.0  162.2
 272   21:20   55.4    40    2.4   159      4.1   790.3    0.00       0    -14710.0  162.3
 272   21:30   55.5    40    2.8   165      4.2   790.3    0.00       0    -14710.0  162.3
 272   21:40   55.5    40    2.6   160      5.0   790.3    0.00       0    -14710.0  162.3
 272   21:50   55.7    40    2.8   166      4.2   790.3    0.00       0    -14710.0  162.3
 272   22:00   55.6    39    3.5   171      5.8   790.4    0.00       0    -14710.0  162.3
 272   22:10   55.6    39    3.6   170      6.3   790.4    0.00       0    -14710.0  162.3
 272   22:20   55.7    39    3.7   171      6.3   790.4    0.00       0    -14710.0  162.3
 272   22:30   55.4    39    3.4   167      7.4   790.5    0.00       0    -14710.0  162.3
 272   22:40   55.0    39    4.2   171      7.8   790.5    0.00       0    -14710.0  162.3
 272   22:50   55.1    38    4.4   170      9.6   790.5    0.00       0    -14710.0  162.3
 272   23:00   55.2    37    5.2   172     10.5   790.5    0.00       0    -14710.0  162.3
 272   23:10   55.2    36    3.5   162      8.9   790.4    0.00       0    -14710.0  162.3
 272   23:20   55.2    36    3.4   161      7.7   790.4    0.00       0    -14710.0  162.1
 272   23:30   55.3    35    3.6   166      8.3   790.4    0.00       0    -14710.0  162.0
 272   23:40   55.2    35    3.3   166      6.2   790.5    0.00       0    -14710.0  162.0
 272   23:50   55.1    35    2.3   168      5.3   790.6    0.00       0    -14710.0  162.1
 273    0:00   54.8    35    2.4   162      5.8   790.6    0.00       0    -14710.0  162.1
 273    0:10   54.8    35    4.0   166     10.6   790.5    0.00       0    -14710.0  162.1
 273    0:20   54.9    34    3.8   160      9.6   790.6    0.00       0    -14710.0  162.1
 273    0:30   54.7    34    5.0   174     10.7   790.6    0.00       0    -14710.0  162.2
 273    0:40   54.5    34    6.3   176     12.1   790.6    0.00       0    -14710.0  162.3
 273    0:50   54.7    34    5.6   175     11.1   790.6    0.00       0    -14710.0  162.3
 273    1:00   54.5    34    5.6   175     13.3   790.6    0.00       0    -14710.0  162.3
 273    1:10   54.6    33    7.2   178     13.3   790.7    0.00       0    -14710.0  162.3
 273    1:20   54.5    33    6.1   176     11.5   790.7    0.00       0    -14710.0  162.3
 273    1:30   54.7    33    7.3   176     15.8   790.7    0.00       0    -14710.0  162.3
 273    1:40   54.6    33    6.6   174     14.1   790.6    0.00       0    -14710.0  162.3
 273    1:50   54.7    33    6.2   170     12.7   790.6    0.00       0    -14710.0  162.3
 273    2:00   54.6    33    7.3   173     15.3   790.6    0.00       0    -14710.0  162.3
 273    2:10   54.5    33    5.9   176     13.3   790.5    0.00       0    -14710.0  162.3
 273    2:20   54.4    32    5.4   179     11.8   790.5    0.00       0    -14710.0  162.3
 273    2:30   54.5    32    3.7   165     11.4   790.5    0.00       0    -14710.0  162.3
 273    2:40   54.2    32    3.9   166      9.9   790.5    0.00       0    -14710.0  162.3
 273    2:50   54.2    32    3.9   172      9.3   790.4    0.00       0    -14710.0  162.3
 273    3:00   53.9    32    4.1   169     10.2   790.4    0.00       0    -14710.0  162.3
 273    3:10   54.1    32    4.5   170      9.7   790.3    0.00       0    -14710.0  162.3
 273    3:20   54.0    32    4.8   165     10.3   790.3    0.00       0    -14710.0  162.3
 273    3:30   53.7    32    4.6   163     12.5   790.4    0.00       0    -14710.0  162.3
 273    3:40   53.9    32    4.0   157     10.2   790.4    0.00       0    -14710.0  162.3
 273    3:50   54.1    31    5.2   163     12.5   790.4    0.00       0    -14710.0  162.3
 273    4:00   54.0    31    4.7   167      9.5   790.3    0.00       0    -14710.0  162.3
 273    4:10   54.2    31    4.5   160     10.4   790.4    0.00       0    -14710.0  162.3
 273    4:20   54.1    31    2.9   159      6.5   790.4    0.00       0    -14710.0  162.3
 273    4:30   53.8    31    3.0   158      7.4   790.4    0.00       0    -14710.0  162.3
 273    4:40   53.5    31    3.6   164      8.8   790.5    0.00       0    -14710.0  162.3
 273    4:50   53.5    31    4.5   165     13.3   790.5    0.00       0    -14710.0  162.2
 273    5:00   53.5    31    4.4   166      9.7   790.5    0.00       0    -14710.0  162.2
 273    5:10   53.4    31    5.0   166     10.9   790.6    0.00       0    -14710.0  162.2
 273    5:20   53.6    31    4.5   159     11.9   790.6    0.00       0    -14710.0  162.3
 273    5:30   53.9    31    4.7   159     11.2   790.7    0.00       0    -14710.0  162.3
 273    5:40   53.9    31    3.7   159      7.5   790.7    0.00       0    -14710.0  162.3
 273    5:50   54.1    31    4.8   166     10.0   790.8    0.00       1    -14710.0  162.3
 273    6:00   54.3    30    3.5   140      9.1   790.9    0.00       2    -14710.0  162.3
 273    6:10   53.8    31    3.9   155      7.3   790.9    0.00       4    -14710.0  162.3
 273    6:20   53.9    31    4.3   153      7.9   790.9    0.00      12    -14710.0  162.3
 273    6:30   54.1    31    5.4   162     10.9   790.9    0.00      16    -14710.0  162.3
 273    6:40   54.4    31    4.8   158     12.6   790.9    0.00      38    -14710.0  162.3
 273    6:50   55.4    30    5.8   162     13.7   791.0    0.00      58    -14710.0  162.3
 273    7:00   55.8    30    6.7   167     15.6   791.1    0.00      61    -14710.0  162.3
 273    7:10   55.7    30    7.3   179     13.8   791.1    0.00      54    -14710.0  162.3
 273    7:20   56.0    30    7.4   177     16.2   791.2    0.00     120    -14710.0  162.3
 273    7:30   56.4    30    6.9   178     11.8   791.3    0.00     124    -14710.0  162.2
 273    7:40   55.9    31    6.8   182     11.2   791.4    0.00     126    -14710.0  162.3
 273    7:50   56.3    32    9.0   185     14.3   791.5    0.00     189    -14710.0  162.2
 273    8:00   56.9    31    8.3   181     12.3   791.6    0.00     191    -14710.0  162.2
 273    8:10   57.5    31    6.6   172     11.8   791.7    0.00     209    -14710.0  162.2
 273    8:20   58.1    31    5.4   179     12.1   791.8    0.00      52    -14710.0  162.1
 273    8:30   58.1    31    6.4   192     12.9   792.0    0.00      98    -14710.0  162.1
 273    8:40   57.7    32    7.4   187     12.6   792.1    0.00      81    -14710.0  162.2
 273    8:50   58.1    33    6.6   186     12.9   792.2    0.00     155    -14710.0  162.2
 273    9:00   59.2    32    6.8   196     14.0   792.2    0.00     346    -14710.0  162.2
 273    9:10   60.6    31    6.4   197     11.8   792.2    0.00     366    -14710.0  162.2
 273    9:20   61.1    31    7.3   197     12.7   792.2    0.00     388    -14710.0  162.1
 273    9:30   61.2    30    6.6   198     12.6   792.2    0.00     410    -14710.0  161.9
 273    9:40   61.6    30    6.2   203     14.0   792.3    0.00     282    -14710.0  161.9
 273    9:50   61.7    30    5.1   211     11.5   792.3    0.00     130    -14710.0  161.9
 273   10:00   62.7    30    4.8   214      9.6   792.4    0.00     328    -14710.0  161.9
 273   10:10   62.9    29    4.2   219      9.9   792.4    0.00     461    -14710.0  161.9
 273   10:20   63.0    28    5.3   228     15.6   792.4    0.00     475    -14710.0  161.9
 273   10:30   63.0    30    6.1   212     14.8   792.5    0.00     486    -14710.0  161.9
 273   10:40   62.3    30    4.1   239     14.1   792.4    0.00     495    -14710.0  161.9
 273   10:50   63.4    29    5.5   217     12.9   792.4    0.00     506    -14710.0  161.9
 273   11:00   63.6    28    5.3   224     10.7   792.3    0.00     513    -14710.0  161.9
 273   11:10   63.5    28    4.4   226     10.4   792.3    0.00     519    -14710.0  161.9
 273   11:20   63.9    28    4.3   239     10.3   792.2    0.00     521    -14710.0  161.9
 273   11:30   63.5    28    5.1   222     12.9   792.2    0.00     529    -14710.0  161.9
 273   11:40   64.1    28    4.3   227     10.9   792.2    0.00     530    -14710.0  161.9
 273   11:50   64.1    28    4.3   234     10.4   792.2    0.00     531    -14710.0  161.9
 273   12:00   64.6    26    4.2   225     10.3   792.1    0.00     532    -14710.0  161.9
 273   12:10   64.5    26    4.8   228     14.0   792.1    0.00     529    -14710.0  161.5
 273   12:20   64.8    26    4.2   243      9.3   792.0    0.00     521    -14710.0  161.9
 273   12:30   63.2    28    5.3   228     13.3   792.0    0.00     519    -14710.0  161.9
 273   12:40   64.6    27    4.3   235     19.1   791.9    0.00     513    -14710.0  161.9
 273   12:50   65.9    26    5.5   207     12.3   791.8    0.00     507    -14710.0  161.7
 273   13:00   65.7    26    6.3   218     14.7   791.8    0.00     499    -14710.0  161.8
 273   13:10   64.3    28    5.0   249     13.5   791.8    0.00     473    -14710.0  161.9
 273   13:20   63.3    29    4.5   263      9.9   791.7    0.00     421    -14710.0  161.9
 273   13:30   63.0    29    4.2   266     10.2   791.7    0.00     466    -14710.0  161.8
 273   13:40   63.6    29    3.9   251     11.7   791.7    0.00     435    -14710.0  161.9
 273   13:50   64.3    28    4.1   246      9.8   791.7    0.00     438    -14710.0  161.8
 273   14:00   64.0    28    4.8   232     13.7   791.6    0.00     421    -14710.0  161.8
 273   14:10   64.0    29    4.0   250     10.2   791.5    0.00     411    -14710.0  161.8
 273   14:20   63.3    29    5.7   238     17.3   791.5    0.00     389    -14710.0  161.8
 273   14:30   62.9    30    4.4   248     11.3   791.5    0.00     358    -14710.0  162.1
 273   14:40   63.7    29    4.6   249     14.8   791.5    0.00     353    -14710.0  162.2
 273   14:50   63.3    29    4.1   247      9.8   791.4    0.00     331    -14710.0  162.1
 273   15:00   63.2    29    4.1   249     10.7   791.4    0.00     311    -14710.0  162.0
 273   15:10   62.8    30    3.9   244      9.3   791.3    0.00     292    -14710.0  162.0
 273   15:20   62.6    31    4.2   251      9.6   791.4    0.00     265    -14710.0  162.0
 273   15:30   61.3    33    4.1   264     11.0   791.3    0.00     192    -14710.0  162.2
 273   15:40   60.4    35    4.1   257     11.3   791.4    0.00      63    -14710.0  162.2
 273   15:50   60.4    34    3.5   262      9.6   791.4    0.00      35    -14710.0  162.2
 273   16:00   60.3    34    3.9   253     11.0   791.3    0.00      34    -14710.0  162.2
 273   16:10   59.9    35    3.3   244      7.5   791.3    0.00      34    -14710.0  162.2
 273   16:20   59.3    36    4.6   250     10.6   791.3    0.00      33    -14710.0  162.2
 273   16:30   58.9    37    3.2   250      9.1   791.3    0.00      24    -14710.0  162.2
 273   16:40   58.3    39    4.5   255     12.7   791.3    0.00      29    -14710.0  162.2
 273   16:50   57.8    39    3.4   250     11.8   791.3    0.00      21    -14710.0  162.2
 273   17:00   57.3    40    3.0   245      6.6   791.3    0.00      15    -14710.0  162.2
 273   17:10   56.9    42    2.3   256      5.6   791.4    0.00      13    -14710.0  162.2
 273   17:20   56.1    43    2.5   249      7.2   791.4    0.00      10    -14710.0  162.2
 273   17:30   55.4    45    2.4   241      5.4   791.5    0.00       8    -14710.0  162.3
 273   17:40   54.8    45    2.7   240      7.6   791.5    0.00       5    -14710.0  162.3
 273   17:50   54.1    47    2.0   239      5.3   791.4    0.00       2    -14710.0  162.3
 273   18:00   53.6    48    2.0   241      3.8   791.4    0.00       1    -14710.0  162.3
 273   18:10   53.1    49    1.6   244      3.7   791.3    0.00       0    -14710.0  162.3
 273   18:20   52.8    50    2.2   236      5.0   791.3    0.00       0    -14710.0  162.3
 273   18:30   52.7    50    2.6   232      4.3   791.3    0.00       0    -14710.0  162.3
 273   18:40   52.4    51    2.0   224      5.8   791.4    0.00       0    -14710.0  162.3
 273   18:50   51.8    53    3.4   201      6.2   791.3    0.00       0    -14710.0  162.3
 273   19:00   51.7    53    4.9   193      7.0   791.4    0.00       0    -14710.0  162.3
 273   19:10   51.5    54    5.5   189      7.5   791.5    0.00       0    -14710.0  162.3
 273   19:20   51.3    54    5.5   189      8.4   791.5    0.00       0    -14710.0  162.2
 273   19:30   51.2    54    6.1   185      8.5   791.6    0.00       0    -14710.0  162.2
 273   19:40   51.3    54    6.1   177      9.6   791.6    0.00       0    -14710.0  162.1
 273   19:50   51.5    51    7.9   180     12.9   791.6    0.00       0    -14710.0   89.4
 273   20:00   51.9    50    5.6   173     10.7   791.6    0.00       0    -14710.0  162.2
 273   20:10   51.5    49    7.3   173     13.5   791.6    0.00       0    -14710.0  162.2
 273   20:20   52.1    48    6.4   174     10.7   791.6    0.00       0    -14710.0  162.2
 273   20:30   51.7    49    5.1   177      8.3   791.7    0.00       0    -14710.0  162.2

Return to Alpha graphs page.


Western Regional Climate Center,wrcc@dri.edu